• Join FlightAware (Why Join?)
  • Login
  • US Flag 
03:20PM EST


 

Airport Tracker/Info


-or-


 

Live Flight TrackerFlight Track Log ✈ N811DD ✈ 27-Aug-2014 ✈ KPDK - KPMP

Flight Track Log - Related Links

Times and Time Zones

All times are in EDT time to prevent confusion due to time zone crossing. See the N811DD flight status page for this flight to view local times or setup timezone preferences in your user account.

Time Position Orientation Groundspeed Altitude Reporting Facility
EDT Latitude Longitude Course Direction KTS MPH feet Rate Location/Type
02:26PM 33.9167 -84.2833 90° East 138 159 2,800  Level Atlanta TRACON
02:27PM 33.9167 -84.2333 90° East 165 190 4,100 600 Climbing Atlanta TRACON
02:28PM 33.8833 -84.1833 129° Southeast 213 245 4,000 -60 Descending Atlanta TRACON
02:29PM 33.8333 -84.1333 140° Southeast 209 241 4,000  Level Atlanta TRACON
02:30PM 33.7833 -84.1000 151° Southeast 205 236 4,100  Climbing Atlanta TRACON
02:31PM 33.7333 -84.0833 165° South 204 235 4,000  Descending Atlanta TRACON
02:32PM 33.6833 -84.0667 164° South 213 245 4,100  Climbing Atlanta TRACON
02:33PM 33.6167 -84.0667 180° South 213 245 4,000  Descending Atlanta TRACON
02:34PM 33.5500 -84.0667 180° South 214 246 4,100  Climbing Atlanta TRACON
02:35PM 33.5000 -84.0667 180° South 217 250 4,100 720 Level Atlanta TRACON
02:36PM 33.4333 -84.0667 180° South 194 223 5,600 1,620 Climbing Atlanta TRACON
02:37PM 33.4000 -84.0667 180° South 161 185 7,400 1,680 Climbing Atlanta TRACON
02:38PM 33.3558 -84.0661 179° South 165 190 8,800 1,500 Climbing Atlanta Center
02:39PM 33.3078 -84.0711 185° South 172 198 10,300 1,080 Climbing Atlanta Center
02:40PM 33.2578 -84.0711 180° South 185 213 11,000 1,200 Climbing Atlanta Center
02:41PM 33.1994 -84.0736 182° South 200 230 12,800 1,440 Climbing Atlanta Center
02:42PM 33.1472 -84.0736 180° South 200 230 13,900 1,140 Climbing Atlanta Center
02:43PM 33.0908 -84.0736 180° South 200 230 15,100 540 Climbing Atlanta Center
02:44PM 33.0283 -84.0711 178° South 208 239 15,000  Descending Atlanta Center
02:45PM 32.9594 -84.0661 177° South 233 268 15,200 1,200 Climbing Atlanta Center
02:46PM 32.9114 -84.0339 151° Southeast 207 238 17,500 1,620 Climbing Atlanta Center
02:47PM 32.8694 -83.9967 143° Southeast 201 231 18,500 1,020 Climbing Atlanta Center
02:48PM 32.8319 -83.9547 137° Southeast 195 224 19,600 1,020 Climbing Atlanta Center
02:49PM 32.7903 -83.9128 140° Southeast 195 224 20,600 900 Climbing Atlanta Center
02:50PM 32.7464 -83.8708 141° Southeast 195 224 21,500 900 Climbing Atlanta Center
02:51PM 32.7044 -83.8242 137° Southeast 200 230 22,400 900 Climbing Atlanta Center
02:52PM 32.6606 -83.7822 141° Southeast 200 230 23,300 840 Climbing Atlanta Center
02:53PM 32.6186 -83.7381 138° Southeast 200 230 24,100 780 Climbing Atlanta Center
02:54PM 32.5728 -83.6961 142° Southeast 205 236 24,900 780 Climbing Atlanta Center
02:55PM 32.5286 -83.6472 137° Southeast 205 236 25,700 660 Climbing Atlanta Center
02:56PM 32.4847 -83.6031 140° Southeast 205 236 26,300 600 Climbing Atlanta Center
02:57PM 32.4367 -83.5564 141° Southeast 210 242 26,900 600 Climbing Atlanta Center
02:58PM 32.3906 -83.5100 140° Southeast 215 247 27,500 540 Climbing Atlanta Center
02:59PM 32.3442 -83.4636 140° Southeast 215 247 28,000 240 Climbing Atlanta Center
03:00PM 32.2939 -83.4122 139° Southeast 220 253 28,000  Level Atlanta Center
03:01PM 32.2394 -83.3586 140° Southeast 233 268 28,000  Level Atlanta Center
03:02PM 32.1869 -83.3025 138° Southeast 245 282 28,000  Level Atlanta Center
03:03PM 32.1158 -83.2336 141° Southeast 267 307 28,000  Level Jacksonville Center
03:04PM 32.0597 -83.1769 139° Southeast 267 307 28,000  Level Jacksonville Center
03:05PM 32.0036 -83.1203 139° Southeast 267 307 28,000  Level Jacksonville Center
03:06PM 31.9492 -83.0664 140° Southeast 267 307 28,000  Level Jacksonville Center
03:07PM 31.8931 -83.0100 140° Southeast 267 307 28,000  Level Jacksonville Center
03:08PM 31.8344 -82.9536 141° Southeast 267 307 28,000  Level Jacksonville Center
03:09PM 31.7803 -82.9000 140° Southeast 262 302 28,000  Level Jacksonville Center
03:10PM 31.7239 -82.8436 140° Southeast 262 302 28,000  Level Jacksonville Center
03:11PM 31.6653 -82.7875 141° Southeast 262 302 28,000  Level Jacksonville Center
03:12PM 31.6111 -82.7342 140° Southeast 262 302 28,000  Level Jacksonville Center
03:13PM 31.5547 -82.6806 141° Southeast 262 302 28,000  Level Jacksonville Center
03:14PM 31.4961 -82.6222 140° Southeast 257 296 28,000  Level Jacksonville Center
03:15PM 31.4417 -82.5686 140° Southeast 257 296 28,000  Level Jacksonville Center
03:16PM 31.3831 -82.5131 141° Southeast 257 296 28,000  Level Jacksonville Center
03:17PM 31.3306 -82.4669 143° Southeast 257 296 28,000  Level Jacksonville Center
03:18PM 31.2761 -82.4089 138° Southeast 257 296 28,000  Level Jacksonville Center
03:19PM 31.2175 -82.3556 142° Southeast 262 302 28,000  Level Jacksonville Center
03:20PM 31.1608 -82.3003 140° Southeast 262 302 28,000  Level Jacksonville Center
03:21PM 31.1042 -82.2472 141° Southeast 262 302 28,000  Level Jacksonville Center
03:22PM 31.0456 -82.1894 140° Southeast 262 302 28,000  Level Jacksonville Center
03:23PM 30.9867 -82.1342 141° Southeast 262 302 28,000  Level Jacksonville Center
03:24PM 30.9300 -82.0789 140° Southeast 262 302 28,000  Level Jacksonville Center
03:25PM 30.8733 -82.0236 140° Southeast 262 302 28,000  Level Jacksonville Center
03:26PM 30.8186 -81.9686 139° Southeast 262 302 28,000  Level Jacksonville Center
03:27PM 30.7597 -81.9158 142° Southeast 262 302 28,000  Level Jacksonville Center
03:28PM 30.6986 -81.8561 140° Southeast 262 302 28,000  Level Jacksonville Center
03:29PM 30.6439 -81.7989 138° Southeast 262 302 28,000  Level Jacksonville Center
03:30PM 30.5850 -81.7439 141° Southeast 262 302 28,000  Level Jacksonville Center
03:31PM 30.5281 -81.6917 142° Southeast 262 302 28,000  Level Jacksonville Center
03:32PM 30.4711 -81.6344 139° Southeast 262 302 28,000  Level Jacksonville Center
03:33PM 30.4142 -81.5822 142° Southeast 262 302 28,000  Level Jacksonville Center
03:34PM 30.3572 -81.5275 140° Southeast 262 302 28,000  Level Jacksonville Center
03:35PM 30.2922 -81.4925 155° Southeast 262 302 28,000  Level Jacksonville Center
03:36PM 30.2189 -81.4622 160° South 267 307 28,000  Level Jacksonville Center
03:37PM 30.1475 -81.4344 161° South 273 314 28,000  Level Jacksonville Center
03:38PM 30.0783 -81.4067 161° South 268 308 28,000  Level Jacksonville Center
03:39PM 30.0092 -81.3792 161° South 268 308 28,000  Level Jacksonville Center
03:40PM 29.9378 -81.3514 161° South 268 308 28,000  Level Jacksonville Center
03:41PM 29.8664 -81.3261 163° South 268 308 28,000  Level Jacksonville Center
03:42PM 29.7972 -81.2961 159° South 268 308 28,000  Level Jacksonville Center
03:43PM 29.7258 -81.2686 162° South 268 308 28,000  Level Jacksonville Center
03:44PM 29.6567 -81.2411 161° South 268 308 28,000  Level Jacksonville Center
03:46PM 29.4919 -81.1747 161° South 266 306 28,000  Level Miami Center
03:47PM 29.4175 -81.1461 161° South 268 308 28,000  Level Miami Center
03:48PM 29.3478 -81.1192 161° South 268 308 28,000  Level Miami Center
03:49PM 29.2786 -81.0872 158° South 268 308 28,000  Level Miami Center
03:50PM 29.2153 -81.0431 149° Southeast 267 307 28,000  Level Miami Center
03:51PM 29.1519 -80.9975 148° Southeast 268 308 28,000  Level Miami Center
03:52PM 29.0875 -80.9536 149° Southeast 268 308 28,000  Level Miami Center
03:54PM 29.0244 -80.9081 148° Southeast 269 310 28,000  Level Miami Center
03:55PM 28.9467 -80.8547 149° Southeast 269 310 28,000  Level Miami Center
03:56PM 28.8797 -80.8083 149° Southeast 269 310 28,000  Level Miami Center
03:57PM 28.8128 -80.7611 148° Southeast 270 311 28,000  Level Miami Center
03:58PM 28.7497 -80.7186 149° Southeast 270 311 28,000  Level Miami Center
03:59PM 28.6825 -80.6722 149° Southeast 270 311 28,000  Level Miami Center
04:00PM 28.6156 -80.6256 149° Southeast 269 310 28,000  Level Miami Center
04:01PM 28.5483 -80.5792 149° Southeast 270 311 28,000  Level Miami Center
04:02PM 28.4861 -80.5367 149° Southeast 271 312 28,000  Level Miami Center
04:03PM 28.4181 -80.4897 149° Southeast 273 314 28,000  Level Miami Center
04:04PM 28.3506 -80.4431 149° Southeast 271 312 28,000  Level Miami Center
04:05PM 28.2836 -80.3975 149° Southeast 271 312 28,000 -120 Level Miami Center
04:06PM 28.2153 -80.3508 149° Southeast 271 312 27,800 -840 Descending Miami Center
04:07PM 28.1483 -80.3061 149° Southeast 288 331 26,300 -1,500 Descending Miami Center
04:08PM 28.0750 -80.2558 149° Southeast 288 331 24,700 -1,560 Descending Miami Center
04:09PM 28.0031 -80.2069 149° Southeast 289 333 23,100 -1,620 Descending Miami Center
04:10PM 27.9317 -80.1575 149° Southeast 288 331 21,500 -1,620 Descending Miami Center
04:11PM 27.8589 -80.1097 150° Southeast 289 333 19,800 -1,500 Descending Miami Center
04:12PM 27.7950 -80.0664 149° Southeast 287 330 18,400 -1,320 Descending Miami Center
04:13PM 27.7222 -80.0211 151° Southeast 280 322 17,100 -1,020 Descending Miami Center
04:14PM 27.6422 -80.0167 177° South 278 320 16,300 -780 Descending Miami Center
04:15PM 27.5633 -80.0167 180° South 272 313 15,500 -780 Descending Miami Center
04:16PM 27.4817 -80.0156 179° South 278 320 14,700 -840 Descending Miami Center
04:17PM 27.3981 -80.0156 180° South 283 326 13,800 -840 Descending Miami Center
04:18PM 27.3233 -80.0142 179° South 282 325 13,000 -840 Descending Miami Center
04:19PM 27.2425 -80.0142 180° South 281 323 12,100 -540 Descending Miami Center
04:20PM 27.1653 -80.0192 183° South 266 306 12,000 -300 Descending Miami Center
04:21PM 27.0900 -80.0108 174° South 262 302 11,600 -540 Descending Miami Center
04:22PM 27.0131 -80.0022 174° South 263 303 10,900 -660 Descending Miami Center
04:23PM 26.9417 -79.9950 175° South 263 303 10,300 -600 Descending Miami Center
04:24PM 26.8653 -79.9867 174° South 263 303 9,700 -600 Descending Miami Center
04:26PM 26.7853 -79.9778 174° South 266 306 9,100 -600 Descending Miami Center
04:27PM 26.7111 -79.9697 174° South 266 306 8,500 -600 Descending Miami Center
04:27PM 26.6661 -79.9664 176° South 266 306 8,100 -720 Descending Miami Center
04:28PM 26.6325 -79.9608 172° South 265 305 7,800 -660 Descending Miami Center
04:29PM 26.5603 -79.9536 175° South 260 299 7,200 -780 Descending Miami Center
04:29PM 26.5144 -79.9481 174° South 260 299 6,600 -1,080 Descending Miami Center
04:30PM 26.4883 -79.9458 176° South 259 298 6,100 -1,200 Descending Miami Center
04:32PM 26.3606 -79.9724 193° South  Level FlightAware Approximate
04:39PM 25.8935 -80.1059 200° South  Level FlightAware Approximate
04:40PM 25.8274 -80.1279 194° South  Level FlightAware Approximate
04:41PM 25.7605 -80.1470 194° South  Level FlightAware Approximate
04:42PM 25.8294 -80.1420 13° North  Level Estimated
04:43PM 25.8983 -80.1369 North  Level Estimated
04:44PM 25.9673 -80.1333 North  Level FlightAware Approximate
04:45PM 26.0362 -80.1279 North  Level Estimated
04:46PM 26.1051 -80.1224 North  Level Estimated
04:47PM 26.1737 -80.1136 North  Level FlightAware Approximate
04:48PM 26.2428 -80.1114 10° North  Level Estimated
04:49PM 26.2474 -80.1112 133° Southeast  Level Estimated
04:50PM 26.2474 -80.1112 10° North  Level Estimated
04:51PM 26.2474 -80.1112 144° Southeast  Level Estimated
04:52PM 26.2474 -80.1112 10° North  Level Estimated
04:53PM 26.2474 -80.1112 144° Southeast  Level Estimated
04:54PM 26.2474 -80.1112 10° North  Level Estimated
04:55PM 26.2474 -80.1112 144° Southeast  Level Estimated
04:56PM 26.2474 -80.1112 10° North  Level Estimated
04:57PM 26.2474 -80.1112 144° Southeast  Level Estimated
04:58PM 26.2474 -80.1112 10° North  Level Estimated
04:59PM 26.2474 -80.1112 144° Southeast  Level Estimated
05:00PM 26.2474 -80.1112 10° North  Level Estimated
05:01PM 26.2474 -80.1112 144° Southeast  Level Estimated
05:02PM 26.2474 -80.1112 10° North  Level Estimated
05:03PM 26.2474 -80.1112 144° Southeast  Level Estimated